sensor_id;sensor_type;location;lat;lon;timestamp;temperature;humidity
6114;DHT22;3087;48.392;10.836;2023-06-26T00:00:03;21.40;86.00
6114;DHT22;3087;48.392;10.836;2023-06-26T00:02:30;21.30;86.30
6114;DHT22;3087;48.392;10.836;2023-06-26T00:04:58;21.30;86.30
6114;DHT22;3087;48.392;10.836;2023-06-26T00:07:24;21.10;87.00
6114;DHT22;3087;48.392;10.836;2023-06-26T00:09:49;20.80;87.30
6114;DHT22;3087;48.392;10.836;2023-06-26T00:12:15;20.70;88.00
6114;DHT22;3087;48.392;10.836;2023-06-26T00:14:41;20.40;88.50
6114;DHT22;3087;48.392;10.836;2023-06-26T00:17:06;20.30;89.10
6114;DHT22;3087;48.392;10.836;2023-06-26T00:19:32;20.10;89.80
6114;DHT22;3087;48.392;10.836;2023-06-26T00:21:58;20.00;90.10
6114;DHT22;3087;48.392;10.836;2023-06-26T00:24:24;19.90;90.40
6114;DHT22;3087;48.392;10.836;2023-06-26T00:26:49;19.90;90.40
6114;DHT22;3087;48.392;10.836;2023-06-26T00:29:15;20.00;90.50
6114;DHT22;3087;48.392;10.836;2023-06-26T00:31:41;19.90;90.70
6114;DHT22;3087;48.392;10.836;2023-06-26T00:34:07;19.80;91.00
6114;DHT22;3087;48.392;10.836;2023-06-26T00:36:32;19.70;91.20
6114;DHT22;3087;48.392;10.836;2023-06-26T00:38:59;19.70;91.40
6114;DHT22;3087;48.392;10.836;2023-06-26T00:41:24;19.70;91.60
6114;DHT22;3087;48.392;10.836;2023-06-26T00:43:50;19.80;91.40
6114;DHT22;3087;48.392;10.836;2023-06-26T00:46:16;20.20;91.20
6114;DHT22;3087;48.392;10.836;2023-06-26T00:48:44;20.20;91.50
6114;DHT22;3087;48.392;10.836;2023-06-26T00:51:10;20.00;91.40
6114;DHT22;3087;48.392;10.836;2023-06-26T00:53:36;19.90;91.50
6114;DHT22;3087;48.392;10.836;2023-06-26T00:56:02;19.70;91.70
6114;DHT22;3087;48.392;10.836;2023-06-26T00:58:28;19.50;92.10
6114;DHT22;3087;48.392;10.836;2023-06-26T01:00:54;19.50;92.20
6114;DHT22;3087;48.392;10.836;2023-06-26T01:03:22;19.40;92.70
6114;DHT22;3087;48.392;10.836;2023-06-26T01:05:49;19.30;93.00
6114;DHT22;3087;48.392;10.836;2023-06-26T01:08:16;19.20;93.10
6114;DHT22;3087;48.392;10.836;2023-06-26T01:10:42;19.10;93.20
6114;DHT22;3087;48.392;10.836;2023-06-26T01:13:08;19.00;93.30
6114;DHT22;3087;48.392;10.836;2023-06-26T01:15:34;19.00;93.40
6114;DHT22;3087;48.392;10.836;2023-06-26T01:18:00;18.90;93.20
6114;DHT22;3087;48.392;10.836;2023-06-26T01:20:30;18.90;93.00
6114;DHT22;3087;48.392;10.836;2023-06-26T01:23:22;18.90;93.10
6114;DHT22;3087;48.392;10.836;2023-06-26T01:28:40;18.70;93.40
6114;DHT22;3087;48.392;10.836;2023-06-26T01:31:07;18.70;93.30
6114;DHT22;3087;48.392;10.836;2023-06-26T01:33:33;18.70;93.30
6114;DHT22;3087;48.392;10.836;2023-06-26T01:36:00;18.60;93.40
6114;DHT22;3087;48.392;10.836;2023-06-26T01:38:26;18.50;93.60
6114;DHT22;3087;48.392;10.836;2023-06-26T01:40:52;18.60;93.40
6114;DHT22;3087;48.392;10.836;2023-06-26T01:46:09;18.60;93.60
6114;DHT22;3087;48.392;10.836;2023-06-26T01:49:01;18.80;93.80
6114;DHT22;3087;48.392;10.836;2023-06-26T01:51:30;18.60;93.80
6114;DHT22;3087;48.392;10.836;2023-06-26T01:53:59;18.60;93.80
6114;DHT22;3087;48.392;10.836;2023-06-26T01:56:26;18.50;93.80
6114;DHT22;3087;48.392;10.836;2023-06-26T01:58:54;18.40;93.90
6114;DHT22;3087;48.392;10.836;2023-06-26T02:01:21;18.40;94.10
6114;DHT22;3087;48.392;10.836;2023-06-26T02:03:47;18.30;94.20
6114;DHT22;3087;48.392;10.836;2023-06-26T02:06:13;18.40;94.50
6114;DHT22;3087;48.392;10.836;2023-06-26T02:08:39;18.40;94.40
6114;DHT22;3087;48.392;10.836;2023-06-26T02:11:05;18.30;94.50
6114;DHT22;3087;48.392;10.836;2023-06-26T02:13:30;18.20;94.80
6114;DHT22;3087;48.392;10.836;2023-06-26T02:15:56;18.20;95.00
6114;DHT22;3087;48.392;10.836;2023-06-26T02:18:22;18.30;95.10
6114;DHT22;3087;48.392;10.836;2023-06-26T02:20:49;18.30;95.20
6114;DHT22;3087;48.392;10.836;2023-06-26T02:23:14;18.30;95.30
6114;DHT22;3087;48.392;10.836;2023-06-26T02:25:40;18.20;95.50
6114;DHT22;3087;48.392;10.836;2023-06-26T02:28:05;18.10;95.50
6114;DHT22;3087;48.392;10.836;2023-06-26T02:30:31;18.00;95.90
6114;DHT22;3087;48.392;10.836;2023-06-26T02:32:57;17.90;96.20
6114;DHT22;3087;48.392;10.836;2023-06-26T02:35:22;17.80;96.50
6114;DHT22;3087;48.392;10.836;2023-06-26T02:37:48;17.90;96.40
6114;DHT22;3087;48.392;10.836;2023-06-26T02:40:13;17.90;96.50
6114;DHT22;3087;48.392;10.836;2023-06-26T02:42:39;17.90;96.70
6114;DHT22;3087;48.392;10.836;2023-06-26T02:45:05;17.90;96.60
6114;DHT22;3087;48.392;10.836;2023-06-26T02:47:31;18.00;96.70
6114;DHT22;3087;48.392;10.836;2023-06-26T02:49:56;17.90;96.80
6114;DHT22;3087;48.392;10.836;2023-06-26T02:52:22;17.80;97.00
6114;DHT22;3087;48.392;10.836;2023-06-26T02:54:48;17.80;97.30
6114;DHT22;3087;48.392;10.836;2023-06-26T02:57:13;17.60;97.60
6114;DHT22;3087;48.392;10.836;2023-06-26T02:59:40;17.60;97.70
6114;DHT22;3087;48.392;10.836;2023-06-26T03:02:06;17.60;97.90
6114;DHT22;3087;48.392;10.836;2023-06-26T03:04:31;17.50;97.90
6114;DHT22;3087;48.392;10.836;2023-06-26T03:06:57;17.50;98.30
6114;DHT22;3087;48.392;10.836;2023-06-26T03:09:23;17.40;98.30
6114;DHT22;3087;48.392;10.836;2023-06-26T03:11:48;17.40;98.50
6114;DHT22;3087;48.392;10.836;2023-06-26T03:14:14;17.20;98.80
6114;DHT22;3087;48.392;10.836;2023-06-26T03:16:40;17.30;98.90
6114;DHT22;3087;48.392;10.836;2023-06-26T03:19:06;17.30;99.10
6114;DHT22;3087;48.392;10.836;2023-06-26T03:21:32;17.20;99.40
6114;DHT22;3087;48.392;10.836;2023-06-26T03:23:58;17.30;99.50
6114;DHT22;3087;48.392;10.836;2023-06-26T03:26:23;17.30;99.50
6114;DHT22;3087;48.392;10.836;2023-06-26T03:28:53;17.40;99.60
6114;DHT22;3087;48.392;10.836;2023-06-26T03:31:19;17.30;99.60
6114;DHT22;3087;48.392;10.836;2023-06-26T03:33:45;17.30;99.90
6114;DHT22;3087;48.392;10.836;2023-06-26T03:36:10;17.20;99.90
6114;DHT22;3087;48.392;10.836;2023-06-26T03:38:36;17.20;99.90
6114;DHT22;3087;48.392;10.836;2023-06-26T03:41:02;17.10;99.90
6114;DHT22;3087;48.392;10.836;2023-06-26T03:43:28;17.20;99.90
6114;DHT22;3087;48.392;10.836;2023-06-26T03:45:53;17.30;99.90
6114;DHT22;3087;48.392;10.836;2023-06-26T03:48:19;17.30;99.90
6114;DHT22;3087;48.392;10.836;2023-06-26T03:50:45;17.20;99.90
6114;DHT22;3087;48.392;10.836;2023-06-26T03:53:10;17.30;99.90
6114;DHT22;3087;48.392;10.836;2023-06-26T03:55:37;17.30;99.90
6114;DHT22;3087;48.392;10.836;2023-06-26T03:58:04;17.50;99.90
6114;DHT22;3087;48.392;10.836;2023-06-26T04:00:30;17.30;99.90
6114;DHT22;3087;48.392;10.836;2023-06-26T04:02:55;17.50;99.90
6114;DHT22;3087;48.392;10.836;2023-06-26T04:05:21;17.40;99.90
6114;DHT22;3087;48.392;10.836;2023-06-26T04:07:50;17.40;99.90
6114;DHT22;3087;48.392;10.836;2023-06-26T04:10:16;17.40;99.90
6114;DHT22;3087;48.392;10.836;2023-06-26T04:12:42;17.30;99.90
6114;DHT22;3087;48.392;10.836;2023-06-26T04:15:07;17.40;99.90
6114;DHT22;3087;48.392;10.836;2023-06-26T04:17:33;17.40;99.90
6114;DHT22;3087;48.392;10.836;2023-06-26T04:19:59;17.40;99.90
6114;DHT22;3087;48.392;10.836;2023-06-26T04:22:24;17.40;99.90
6114;DHT22;3087;48.392;10.836;2023-06-26T04:24:51;17.50;99.90
6114;DHT22;3087;48.392;10.836;2023-06-26T04:27:17;17.60;99.90
6114;DHT22;3087;48.392;10.836;2023-06-26T04:29:43;17.70;99.90
6114;DHT22;3087;48.392;10.836;2023-06-26T04:32:09;17.90;99.90
6114;DHT22;3087;48.392;10.836;2023-06-26T04:34:34;18.00;99.90
6114;DHT22;3087;48.392;10.836;2023-06-26T04:37:02;18.00;99.90
6114;DHT22;3087;48.392;10.836;2023-06-26T04:39:30;18.20;99.90
6114;DHT22;3087;48.392;10.836;2023-06-26T04:41:56;18.20;99.90
6114;DHT22;3087;48.392;10.836;2023-06-26T04:44:21;18.40;99.90
6114;DHT22;3087;48.392;10.836;2023-06-26T04:46:47;18.50;99.90
6114;DHT22;3087;48.392;10.836;2023-06-26T04:49:12;18.60;99.90
6114;DHT22;3087;48.392;10.836;2023-06-26T04:52:15;18.70;99.90
6114;DHT22;3087;48.392;10.836;2023-06-26T04:54:40;18.90;99.80
6114;DHT22;3087;48.392;10.836;2023-06-26T04:57:06;19.00;99.50
6114;DHT22;3087;48.392;10.836;2023-06-26T04:59:32;19.10;99.30
6114;DHT22;3087;48.392;10.836;2023-06-26T05:05:20;19.20;99.50
6114;DHT22;3087;48.392;10.836;2023-06-26T05:07:46;19.20;99.40
6114;DHT22;3087;48.392;10.836;2023-06-26T05:10:11;19.20;99.60
6114;DHT22;3087;48.392;10.836;2023-06-26T05:12:37;19.40;99.60
6114;DHT22;3087;48.392;10.836;2023-06-26T05:15:02;19.50;99.60
6114;DHT22;3087;48.392;10.836;2023-06-26T05:17:28;19.70;99.50
6114;DHT22;3087;48.392;10.836;2023-06-26T05:19:54;19.80;99.30
6114;DHT22;3087;48.392;10.836;2023-06-26T05:22:20;19.90;99.10
6114;DHT22;3087;48.392;10.836;2023-06-26T05:24:46;20.10;99.10
6114;DHT22;3087;48.392;10.836;2023-06-26T05:27:13;20.20;99.00
6114;DHT22;3087;48.392;10.836;2023-06-26T05:29:46;20.50;99.00
6114;DHT22;3087;48.392;10.836;2023-06-26T05:32:15;20.50;98.90
6114;DHT22;3087;48.392;10.836;2023-06-26T05:34:48;20.80;98.50
6114;DHT22;3087;48.392;10.836;2023-06-26T05:37:21;21.00;98.00
6114;DHT22;3087;48.392;10.836;2023-06-26T05:39:47;21.20;97.90
6114;DHT22;3087;48.392;10.836;2023-06-26T05:42:13;21.30;97.60
6114;DHT22;3087;48.392;10.836;2023-06-26T05:44:39;21.50;97.50
6114;DHT22;3087;48.392;10.836;2023-06-26T05:47:05;21.70;96.90
6114;DHT22;3087;48.392;10.836;2023-06-26T05:49:31;22.00;97.00
6114;DHT22;3087;48.392;10.836;2023-06-26T05:51:56;22.00;96.40
6114;DHT22;3087;48.392;10.836;2023-06-26T05:54:24;22.20;96.40
6114;DHT22;3087;48.392;10.836;2023-06-26T05:56:53;22.30;96.30
6114;DHT22;3087;48.392;10.836;2023-06-26T05:59:20;22.40;96.00
6114;DHT22;3087;48.392;10.836;2023-06-26T06:01:45;22.60;95.60
6114;DHT22;3087;48.392;10.836;2023-06-26T06:04:11;22.70;95.50
6114;DHT22;3087;48.392;10.836;2023-06-26T06:06:36;22.80;95.90
6114;DHT22;3087;48.392;10.836;2023-06-26T06:09:02;23.00;95.10
6114;DHT22;3087;48.392;10.836;2023-06-26T06:11:28;23.10;95.00
6114;DHT22;3087;48.392;10.836;2023-06-26T06:13:54;23.20;95.30
6114;DHT22;3087;48.392;10.836;2023-06-26T06:16:19;23.40;94.80
6114;DHT22;3087;48.392;10.836;2023-06-26T06:18:45;23.30;94.30
6114;DHT22;3087;48.392;10.836;2023-06-26T06:21:10;23.30;94.60
6114;DHT22;3087;48.392;10.836;2023-06-26T06:23:36;23.50;94.90
6114;DHT22;3087;48.392;10.836;2023-06-26T06:26:03;23.60;94.30
6114;DHT22;3087;48.392;10.836;2023-06-26T06:28:29;23.60;94.50
6114;DHT22;3087;48.392;10.836;2023-06-26T06:30:55;23.50;94.50
6114;DHT22;3087;48.392;10.836;2023-06-26T06:33:20;23.70;94.80
6114;DHT22;3087;48.392;10.836;2023-06-26T06:35:46;23.70;94.80
6114;DHT22;3087;48.392;10.836;2023-06-26T06:38:12;23.80;95.20
6114;DHT22;3087;48.392;10.836;2023-06-26T06:40:37;23.70;95.10
6114;DHT22;3087;48.392;10.836;2023-06-26T06:43:03;23.70;95.30
6114;DHT22;3087;48.392;10.836;2023-06-26T06:45:29;23.70;95.30
6114;DHT22;3087;48.392;10.836;2023-06-26T06:47:55;23.90;95.30
6114;DHT22;3087;48.392;10.836;2023-06-26T06:50:20;24.10;95.30
6114;DHT22;3087;48.392;10.836;2023-06-26T06:52:46;24.20;95.30
6114;DHT22;3087;48.392;10.836;2023-06-26T06:55:11;24.30;95.20
6114;DHT22;3087;48.392;10.836;2023-06-26T06:57:39;24.40;95.30
6114;DHT22;3087;48.392;10.836;2023-06-26T07:00:10;24.50;95.10
6114;DHT22;3087;48.392;10.836;2023-06-26T07:02:37;24.40;95.30
6114;DHT22;3087;48.392;10.836;2023-06-26T07:05:03;24.50;95.40
6114;DHT22;3087;48.392;10.836;2023-06-26T07:07:30;24.60;95.30
6114;DHT22;3087;48.392;10.836;2023-06-26T07:09:58;24.50;95.40
6114;DHT22;3087;48.392;10.836;2023-06-26T07:12:24;24.60;95.50
6114;DHT22;3087;48.392;10.836;2023-06-26T07:14:50;24.60;95.90
6114;DHT22;3087;48.392;10.836;2023-06-26T07:17:15;24.80;96.10
6114;DHT22;3087;48.392;10.836;2023-06-26T07:19:41;24.90;96.00
6114;DHT22;3087;48.392;10.836;2023-06-26T07:22:06;25.00;95.70
6114;DHT22;3087;48.392;10.836;2023-06-26T07:24:32;25.00;95.60
6114;DHT22;3087;48.392;10.836;2023-06-26T07:26:58;25.00;95.80
6114;DHT22;3087;48.392;10.836;2023-06-26T07:29:23;25.20;95.80
6114;DHT22;3087;48.392;10.836;2023-06-26T07:31:49;25.20;95.50
6114;DHT22;3087;48.392;10.836;2023-06-26T07:34:14;25.20;95.50
6114;DHT22;3087;48.392;10.836;2023-06-26T07:36:40;25.20;95.50
6114;DHT22;3087;48.392;10.836;2023-06-26T07:39:05;25.30;95.60
6114;DHT22;3087;48.392;10.836;2023-06-26T07:41:31;25.30;95.60
6114;DHT22;3087;48.392;10.836;2023-06-26T07:43:58;25.50;95.60
6114;DHT22;3087;48.392;10.836;2023-06-26T07:46:23;25.50;95.60
6114;DHT22;3087;48.392;10.836;2023-06-26T07:48:49;25.60;95.50
6114;DHT22;3087;48.392;10.836;2023-06-26T07:51:15;25.60;95.50
6114;DHT22;3087;48.392;10.836;2023-06-26T07:53:42;25.80;95.40
6114;DHT22;3087;48.392;10.836;2023-06-26T07:56:07;25.90;95.30
6114;DHT22;3087;48.392;10.836;2023-06-26T07:58:33;26.00;95.20
6114;DHT22;3087;48.392;10.836;2023-06-26T08:00:58;26.10;95.20
6114;DHT22;3087;48.392;10.836;2023-06-26T08:03:24;26.20;95.10
6114;DHT22;3087;48.392;10.836;2023-06-26T08:05:50;26.20;95.00
6114;DHT22;3087;48.392;10.836;2023-06-26T08:08:15;26.20;94.90
6114;DHT22;3087;48.392;10.836;2023-06-26T08:10:41;26.20;94.80
6114;DHT22;3087;48.392;10.836;2023-06-26T08:13:06;26.40;94.80
6114;DHT22;3087;48.392;10.836;2023-06-26T08:15:32;26.50;94.70
6114;DHT22;3087;48.392;10.836;2023-06-26T08:17:57;26.60;94.60
6114;DHT22;3087;48.392;10.836;2023-06-26T08:20:23;26.70;94.50
6114;DHT22;3087;48.392;10.836;2023-06-26T08:22:49;26.70;94.40
6114;DHT22;3087;48.392;10.836;2023-06-26T08:25:16;26.80;94.60
6114;DHT22;3087;48.392;10.836;2023-06-26T08:27:42;26.90;94.50
6114;DHT22;3087;48.392;10.836;2023-06-26T08:30:08;26.90;94.40
6114;DHT22;3087;48.392;10.836;2023-06-26T08:32:34;26.90;94.10
6114;DHT22;3087;48.392;10.836;2023-06-26T08:34:59;26.80;94.00
6114;DHT22;3087;48.392;10.836;2023-06-26T08:37:25;26.80;94.00
6114;DHT22;3087;48.392;10.836;2023-06-26T08:39:50;26.80;94.00
6114;DHT22;3087;48.392;10.836;2023-06-26T08:42:16;26.90;94.00
6114;DHT22;3087;48.392;10.836;2023-06-26T08:44:42;26.90;93.90
6114;DHT22;3087;48.392;10.836;2023-06-26T08:47:08;27.10;93.50
6114;DHT22;3087;48.392;10.836;2023-06-26T08:49:51;27.50;93.50
6114;DHT22;3087;48.392;10.836;2023-06-26T08:52:30;27.70;93.60
6114;DHT22;3087;48.392;10.836;2023-06-26T08:54:58;27.70;93.10
6114;DHT22;3087;48.392;10.836;2023-06-26T08:57:25;27.60;92.70
6114;DHT22;3087;48.392;10.836;2023-06-26T08:59:51;27.70;93.00
6114;DHT22;3087;48.392;10.836;2023-06-26T09:02:17;27.80;92.80
6114;DHT22;3087;48.392;10.836;2023-06-26T09:04:43;28.00;92.60
6114;DHT22;3087;48.392;10.836;2023-06-26T09:07:09;28.00;92.60
6114;DHT22;3087;48.392;10.836;2023-06-26T09:09:35;27.80;92.70
6114;DHT22;3087;48.392;10.836;2023-06-26T09:12:04;27.80;92.80
6114;DHT22;3087;48.392;10.836;2023-06-26T09:14:30;28.10;92.80
6114;DHT22;3087;48.392;10.836;2023-06-26T09:16:56;28.10;92.70
6114;DHT22;3087;48.392;10.836;2023-06-26T09:19:21;28.10;92.10
6114;DHT22;3087;48.392;10.836;2023-06-26T09:21:49;28.20;92.40
6114;DHT22;3087;48.392;10.836;2023-06-26T09:24:16;28.20;92.00
6114;DHT22;3087;48.392;10.836;2023-06-26T09:26:42;28.40;92.00
6114;DHT22;3087;48.392;10.836;2023-06-26T09:29:09;28.50;91.60
6114;DHT22;3087;48.392;10.836;2023-06-26T09:31:39;28.50;91.40
6114;DHT22;3087;48.392;10.836;2023-06-26T09:34:05;28.40;91.00
6114;DHT22;3087;48.392;10.836;2023-06-26T09:36:32;28.40;90.90
6114;DHT22;3087;48.392;10.836;2023-06-26T09:39:05;28.40;91.10
6114;DHT22;3087;48.392;10.836;2023-06-26T09:41:37;28.60;90.80
6114;DHT22;3087;48.392;10.836;2023-06-26T09:44:05;28.80;90.70
6114;DHT22;3087;48.392;10.836;2023-06-26T09:46:31;28.70;90.20
6114;DHT22;3087;48.392;10.836;2023-06-26T09:49:05;28.70;89.80
6114;DHT22;3087;48.392;10.836;2023-06-26T09:51:32;28.80;89.40
6114;DHT22;3087;48.392;10.836;2023-06-26T09:53:59;28.90;90.00
6114;DHT22;3087;48.392;10.836;2023-06-26T09:56:25;28.90;89.90
6114;DHT22;3087;48.392;10.836;2023-06-26T09:58:51;29.10;89.60
6114;DHT22;3087;48.392;10.836;2023-06-26T10:01:19;29.10;88.80
6114;DHT22;3087;48.392;10.836;2023-06-26T10:03:44;29.10;88.70
6114;DHT22;3087;48.392;10.836;2023-06-26T10:06:11;29.20;88.40
6114;DHT22;3087;48.392;10.836;2023-06-26T10:08:39;29.00;87.90
6114;DHT22;3087;48.392;10.836;2023-06-26T10:11:08;29.30;87.80
6114;DHT22;3087;48.392;10.836;2023-06-26T10:13:39;30.20;87.80
6114;DHT22;3087;48.392;10.836;2023-06-26T10:16:08;31.00;86.70
6114;DHT22;3087;48.392;10.836;2023-06-26T10:18:36;30.50;86.00
6114;DHT22;3087;48.392;10.836;2023-06-26T10:21:05;30.30;86.30
6114;DHT22;3087;48.392;10.836;2023-06-26T10:23:33;30.00;85.90
6114;DHT22;3087;48.392;10.836;2023-06-26T10:26:00;30.00;86.50
6114;DHT22;3087;48.392;10.836;2023-06-26T10:28:28;29.50;86.50
6114;DHT22;3087;48.392;10.836;2023-06-26T10:30:55;29.60;86.00
6114;DHT22;3087;48.392;10.836;2023-06-26T10:33:22;29.80;85.20
6114;DHT22;3087;48.392;10.836;2023-06-26T10:35:48;30.00;85.60
6114;DHT22;3087;48.392;10.836;2023-06-26T10:38:14;30.20;85.50
6114;DHT22;3087;48.392;10.836;2023-06-26T10:43:08;30.30;85.20
6114;DHT22;3087;48.392;10.836;2023-06-26T10:45:35;30.40;84.80
6114;DHT22;3087;48.392;10.836;2023-06-26T10:48:01;30.50;84.10
6114;DHT22;3087;48.392;10.836;2023-06-26T10:50:34;30.50;84.10
6114;DHT22;3087;48.392;10.836;2023-06-26T11:01:25;31.50;84.50
6114;DHT22;3087;48.392;10.836;2023-06-26T11:04:06;31.90;83.80
6114;DHT22;3087;48.392;10.836;2023-06-26T11:06:34;32.70;83.40
6114;DHT22;3087;48.392;10.836;2023-06-26T11:09:01;32.90;82.60
6114;DHT22;3087;48.392;10.836;2023-06-26T11:14:19;33.90;81.70
6114;DHT22;3087;48.392;10.836;2023-06-26T11:16:45;33.60;81.50
6114;DHT22;3087;48.392;10.836;2023-06-26T11:19:12;33.80;80.90
6114;DHT22;3087;48.392;10.836;2023-06-26T11:21:39;34.20;80.50
6114;DHT22;3087;48.392;10.836;2023-06-26T11:24:08;34.30;79.40
6114;DHT22;3087;48.392;10.836;2023-06-26T11:26:41;34.50;79.50
6114;DHT22;3087;48.392;10.836;2023-06-26T11:29:08;34.30;79.40
6114;DHT22;3087;48.392;10.836;2023-06-26T11:31:38;34.80;79.90
6114;DHT22;3087;48.392;10.836;2023-06-26T11:34:07;35.20;78.70
6114;DHT22;3087;48.392;10.836;2023-06-26T11:36:34;35.70;78.40
6114;DHT22;3087;48.392;10.836;2023-06-26T11:39:03;35.70;77.00
6114;DHT22;3087;48.392;10.836;2023-06-26T11:41:31;35.70;77.00
6114;DHT22;3087;48.392;10.836;2023-06-26T11:44:01;35.90;76.80
6114;DHT22;3087;48.392;10.836;2023-06-26T11:46:27;35.60;76.30
6114;DHT22;3087;48.392;10.836;2023-06-26T11:48:53;35.30;75.50
6114;DHT22;3087;48.392;10.836;2023-06-26T11:51:19;35.20;74.30
6114;DHT22;3087;48.392;10.836;2023-06-26T11:53:46;35.40;75.20
6114;DHT22;3087;48.392;10.836;2023-06-26T11:56:14;35.30;74.00
6114;DHT22;3087;48.392;10.836;2023-06-26T11:59:03;35.50;73.50
6114;DHT22;3087;48.392;10.836;2023-06-26T12:01:37;35.90;73.20
6114;DHT22;3087;48.392;10.836;2023-06-26T12:04:05;35.50;72.70
6114;DHT22;3087;48.392;10.836;2023-06-26T12:06:33;35.40;71.90
6114;DHT22;3087;48.392;10.836;2023-06-26T12:09:01;35.70;72.00
6114;DHT22;3087;48.392;10.836;2023-06-26T12:11:29;35.90;72.50
6114;DHT22;3087;48.392;10.836;2023-06-26T12:13:56;36.30;72.00
6114;DHT22;3087;48.392;10.836;2023-06-26T12:16:21;36.40;69.30
6114;DHT22;3087;48.392;10.836;2023-06-26T12:18:47;36.40;69.60
6114;DHT22;3087;48.392;10.836;2023-06-26T12:24:07;36.70;69.50
6114;DHT22;3087;48.392;10.836;2023-06-26T12:26:33;36.30;68.20
6114;DHT22;3087;48.392;10.836;2023-06-26T12:29:09;36.00;68.80
6114;DHT22;3087;48.392;10.836;2023-06-26T12:31:40;36.20;70.90
6114;DHT22;3087;48.392;10.836;2023-06-26T12:34:13;36.20;69.90
6114;DHT22;3087;48.392;10.836;2023-06-26T12:36:44;36.70;70.70
6114;DHT22;3087;48.392;10.836;2023-06-26T12:39:10;36.70;68.40
6114;DHT22;3087;48.392;10.836;2023-06-26T12:42:02;36.90;68.70
6114;DHT22;3087;48.392;10.836;2023-06-26T12:44:29;37.50;67.70
6114;DHT22;3087;48.392;10.836;2023-06-26T12:47:00;37.90;68.10
6114;DHT22;3087;48.392;10.836;2023-06-26T12:49:36;36.50;66.00
6114;DHT22;3087;48.392;10.836;2023-06-26T12:52:07;37.70;66.60
6114;DHT22;3087;48.392;10.836;2023-06-26T12:54:38;37.10;66.20
6114;DHT22;3087;48.392;10.836;2023-06-26T12:57:04;37.30;66.50
6114;DHT22;3087;48.392;10.836;2023-06-26T12:59:31;36.30;65.90
6114;DHT22;3087;48.392;10.836;2023-06-26T13:01:57;35.90;67.30
6114;DHT22;3087;48.392;10.836;2023-06-26T13:04:23;36.00;67.30
6114;DHT22;3087;48.392;10.836;2023-06-26T13:06:49;35.90;67.00
6114;DHT22;3087;48.392;10.836;2023-06-26T13:09:15;36.00;67.70
6114;DHT22;3087;48.392;10.836;2023-06-26T13:11:41;36.20;68.10
6114;DHT22;3087;48.392;10.836;2023-06-26T13:14:07;35.10;66.80
6114;DHT22;3087;48.392;10.836;2023-06-26T13:16:32;34.90;67.50
6114;DHT22;3087;48.392;10.836;2023-06-26T13:18:59;35.40;67.80
6114;DHT22;3087;48.392;10.836;2023-06-26T13:21:25;36.10;67.70
6114;DHT22;3087;48.392;10.836;2023-06-26T13:23:51;37.20;66.50
6114;DHT22;3087;48.392;10.836;2023-06-26T13:26:16;37.40;66.00
6114;DHT22;3087;48.392;10.836;2023-06-26T13:28:42;38.10;67.40
6114;DHT22;3087;48.392;10.836;2023-06-26T13:31:14;38.60;66.80
6114;DHT22;3087;48.392;10.836;2023-06-26T13:33:40;38.80;65.00
6114;DHT22;3087;48.392;10.836;2023-06-26T13:36:06;38.10;66.60
6114;DHT22;3087;48.392;10.836;2023-06-26T13:38:33;37.90;64.70
6114;DHT22;3087;48.392;10.836;2023-06-26T13:40:59;37.60;65.40
6114;DHT22;3087;48.392;10.836;2023-06-26T13:43:29;37.70;63.40
6114;DHT22;3087;48.392;10.836;2023-06-26T13:45:55;37.50;66.30
6114;DHT22;3087;48.392;10.836;2023-06-26T13:48:21;36.80;64.80
6114;DHT22;3087;48.392;10.836;2023-06-26T13:50:47;36.20;65.50
6114;DHT22;3087;48.392;10.836;2023-06-26T13:53:13;35.50;66.10
6114;DHT22;3087;48.392;10.836;2023-06-26T13:55:40;35.10;66.10
6114;DHT22;3087;48.392;10.836;2023-06-26T13:58:06;34.60;66.60
6114;DHT22;3087;48.392;10.836;2023-06-26T14:00:32;34.30;67.50
6114;DHT22;3087;48.392;10.836;2023-06-26T14:03:02;34.20;67.40
6114;DHT22;3087;48.392;10.836;2023-06-26T14:05:31;33.90;67.60
6114;DHT22;3087;48.392;10.836;2023-06-26T14:07:57;33.60;68.20
6114;DHT22;3087;48.392;10.836;2023-06-26T14:10:23;33.40;69.00
6114;DHT22;3087;48.392;10.836;2023-06-26T14:12:49;33.20;69.00
6114;DHT22;3087;48.392;10.836;2023-06-26T14:15:15;33.20;68.60
6114;DHT22;3087;48.392;10.836;2023-06-26T14:17:41;33.00;70.00
6114;DHT22;3087;48.392;10.836;2023-06-26T14:20:07;33.30;69.20
6114;DHT22;3087;48.392;10.836;2023-06-26T14:22:42;33.20;69.90
6114;DHT22;3087;48.392;10.836;2023-06-26T14:25:08;33.10;69.80
6114;DHT22;3087;48.392;10.836;2023-06-26T14:27:34;33.60;70.20
6114;DHT22;3087;48.392;10.836;2023-06-26T14:30:01;34.10;69.70
6114;DHT22;3087;48.392;10.836;2023-06-26T14:32:26;34.60;69.30
6114;DHT22;3087;48.392;10.836;2023-06-26T14:34:52;34.90;68.80
6114;DHT22;3087;48.392;10.836;2023-06-26T14:37:18;35.20;69.40
6114;DHT22;3087;48.392;10.836;2023-06-26T14:39:44;35.20;68.40
6114;DHT22;3087;48.392;10.836;2023-06-26T14:42:10;35.10;69.10
6114;DHT22;3087;48.392;10.836;2023-06-26T14:44:36;34.80;69.30
6114;DHT22;3087;48.392;10.836;2023-06-26T14:47:02;34.60;69.30
6114;DHT22;3087;48.392;10.836;2023-06-26T14:49:28;34.50;69.20
6114;DHT22;3087;48.392;10.836;2023-06-26T14:51:53;34.00;70.00
6114;DHT22;3087;48.392;10.836;2023-06-26T14:54:19;33.60;70.20
6114;DHT22;3087;48.392;10.836;2023-06-26T14:56:44;33.30;70.60
6114;DHT22;3087;48.392;10.836;2023-06-26T14:59:11;33.20;71.40
6114;DHT22;3087;48.392;10.836;2023-06-26T15:01:38;33.40;71.20
6114;DHT22;3087;48.392;10.836;2023-06-26T15:04:04;33.80;71.40
6114;DHT22;3087;48.392;10.836;2023-06-26T15:06:30;34.40;71.10
6114;DHT22;3087;48.392;10.836;2023-06-26T15:08:55;34.60;70.90
6114;DHT22;3087;48.392;10.836;2023-06-26T15:11:21;34.40;70.70
6114;DHT22;3087;48.392;10.836;2023-06-26T15:13:47;33.70;71.10
6114;DHT22;3087;48.392;10.836;2023-06-26T15:16:12;33.30;72.00
6114;DHT22;3087;48.392;10.836;2023-06-26T15:18:40;33.20;72.40
6114;DHT22;3087;48.392;10.836;2023-06-26T15:21:05;33.40;71.90
6114;DHT22;3087;48.392;10.836;2023-06-26T15:23:31;33.40;72.00
6114;DHT22;3087;48.392;10.836;2023-06-26T15:25:56;33.10;72.20
6114;DHT22;3087;48.392;10.836;2023-06-26T15:28:22;32.80;72.50
6114;DHT22;3087;48.392;10.836;2023-06-26T15:30:48;32.40;72.40
6114;DHT22;3087;48.392;10.836;2023-06-26T15:33:14;32.20;72.90
6114;DHT22;3087;48.392;10.836;2023-06-26T15:35:41;31.90;73.40
6114;DHT22;3087;48.392;10.836;2023-06-26T15:38:07;31.80;73.60
6114;DHT22;3087;48.392;10.836;2023-06-26T15:40:32;31.60;73.90
6114;DHT22;3087;48.392;10.836;2023-06-26T15:42:58;31.40;74.70
6114;DHT22;3087;48.392;10.836;2023-06-26T15:45:23;31.10;76.00
6114;DHT22;3087;48.392;10.836;2023-06-26T15:47:52;30.80;77.00
6114;DHT22;3087;48.392;10.836;2023-06-26T15:50:18;30.20;78.40
6114;DHT22;3087;48.392;10.836;2023-06-26T15:52:48;29.90;79.60
6114;DHT22;3087;48.392;10.836;2023-06-26T15:55:15;29.70;81.00
6114;DHT22;3087;48.392;10.836;2023-06-26T15:57:40;29.00;90.00
6114;DHT22;3087;48.392;10.836;2023-06-26T16:00:07;24.00;99.90
6114;DHT22;3087;48.392;10.836;2023-06-26T16:02:33;21.40;99.90
6114;DHT22;3087;48.392;10.836;2023-06-26T16:04:59;19.60;99.90
6114;DHT22;3087;48.392;10.836;2023-06-26T16:07:26;18.80;99.90